Time;durP1;ratioP1;P1;durP2;ratioP2;P2;SDS_P1;SDS_P2;PMS_P1;PMS_P2;Temp;Humidity;BMP_temperature;BMP_pressure;BME280_temperature;BME280_humidity;BME280_pressure;Samples;Min_cycle;Max_cycle;Signal;HPM_P1;HPM_P2
2022/01/01 00:00:55;;;;;;;2.95;0.50;;;29.80;93.40;;;;;;4963870;28;20390;-76
2022/01/01 00:03:22;;;;;;;3.88;0.35;;;30.20;93.10;;;;;;4964781;28;20038;-77
2022/01/01 00:05:50;;;;;;;1.92;0.35;;;30.40;92.60;;;;;;4970963;28;20022;-77
2022/01/01 00:08:17;;;;;;;1.42;0.28;;;30.50;91.30;;;;;;4967464;28;20122;-73
2022/01/01 00:10:44;;;;;;;1.70;0.30;;;30.00;92.10;;;;;;4972343;28;20086;-74
2022/01/01 00:13:12;;;;;;;2.65;0.40;;;29.70;92.70;;;;;;4970016;28;20428;-75
2022/01/01 00:15:40;;;;;;;2.85;0.30;;;29.60;92.20;;;;;;4974191;28;20026;-73
2022/01/01 00:18:07;;;;;;;1.70;0.32;;;29.60;92.70;;;;;;4966921;28;20031;-72
2022/01/01 00:20:34;;;;;;;0.60;0.30;;;29.60;92.60;;;;;;4960505;28;20027;-73
2022/01/01 00:23:02;;;;;;;3.40;1.05;;;29.90;91.90;;;;;;4966059;28;20153;-73
2022/01/01 00:25:29;;;;;;;2.53;0.30;;;29.90;92.10;;;;;;4972216;28;20027;-74
2022/01/01 00:27:56;;;;;;;2.03;0.60;;;29.90;91.30;;;;;;4972228;28;20493;-73
2022/01/01 00:30:24;;;;;;;2.58;0.57;;;29.80;92.00;;;;;;4965455;28;20039;-74
2022/01/01 00:32:51;;;;;;;1.92;0.20;;;30.20;92.00;;;;;;4968417;28;20031;-74
2022/01/01 00:35:18;;;;;;;1.33;0.30;;;30.60;91.70;;;;;;4966702;28;20110;-73
2022/01/01 00:37:46;;;;;;;1.88;0.30;;;31.00;91.40;;;;;;4971154;28;20114;-74
2022/01/01 00:40:13;;;;;;;1.20;0.35;;;31.20;90.80;;;;;;4967212;28;20397;-74
2022/01/01 00:42:41;;;;;;;1.65;0.30;;;31.40;90.40;;;;;;4963297;28;20421;-74
2022/01/01 00:45:08;;;;;;;1.73;0.30;;;31.60;90.20;;;;;;4972377;28;20035;-75
2022/01/01 00:47:36;;;;;;;2.35;0.25;;;31.50;89.70;;;;;;4973940;28;20117;-74
2022/01/01 00:50:04;;;;;;;3.30;0.30;;;31.40;89.20;;;;;;4969773;28;20481;-74
2022/01/01 00:52:31;;;;;;;1.85;0.25;;;31.40;88.90;;;;;;4969031;28;21173;-75
2022/01/01 00:54:58;;;;;;;3.65;0.40;;;31.70;91.10;;;;;;4968346;28;20029;-73
2022/01/01 00:57:26;;;;;;;3.50;0.35;;;31.90;89.90;;;;;;4964632;28;20157;-72
2022/01/01 00:59:53;;;;;;;2.47;0.32;;;32.20;88.10;;;;;;4966611;28;20111;-72
2022/01/01 01:02:20;;;;;;;0.30;0.13;;;32.70;88.90;;;;;;4969681;28;20030;-73
2022/01/01 01:04:48;;;;;;;1.33;0.30;;;33.00;86.00;;;;;;4968883;28;20035;-73
2022/01/01 01:07:15;;;;;;;0.73;0.20;;;32.80;85.80;;;;;;4968366;28;20022;-73
2022/01/01 01:09:42;;;;;;;3.40;0.38;;;32.80;86.80;;;;;;4970122;28;20035;-73
2022/01/01 01:12:10;;;;;;;1.55;0.43;;;32.70;87.40;;;;;;4969636;28;21004;-74
2022/01/01 01:14:41;;;;;;;2.13;1.25;;;32.60;85.50;;;;;;4971059;28;20038;-73
2022/01/01 01:17:10;;;;;;;2.22;0.50;;;32.40;89.30;;;;;;4969840;28;20037;-75
2022/01/01 01:19:38;;;;;;;2.33;0.20;;;31.50;85.90;;;;;;4968702;28;20095;-74
2022/01/01 01:22:05;;;;;;;4.40;1.08;;;30.90;87.80;;;;;;4970904;28;20050;-75
2022/01/01 01:24:34;;;;;;;1.35;0.55;;;30.90;88.20;;;;;;4968748;28;20124;-75
2022/01/01 01:27:03;;;;;;;1.70;0.57;;;31.30;87.00;;;;;;4972018;28;20034;-76
2022/01/01 01:29:32;;;;;;;1.65;0.30;;;31.70;87.20;;;;;;4969217;28;20172;-74
2022/01/01 01:31:59;;;;;;;0.68;0.40;;;32.10;87.40;;;;;;4970306;28;20453;-75
2022/01/01 01:34:27;;;;;;;0.68;0.60;;;32.20;86.30;;;;;;4974941;28;20034;-76
2022/01/01 01:36:54;;;;;;;1.00;0.20;;;32.40;85.30;;;;;;4973863;28;20118;-74
2022/01/01 01:39:21;;;;;;;1.05;0.20;;;32.20;86.10;;;;;;4967556;28;20051;-74
2022/01/01 01:41:51;;;;;;;2.53;0.85;;;32.20;85.20;;;;;;4970456;28;20448;-74
2022/01/01 01:44:42;;;;;;;3.35;0.43;;;32.40;85.30;;;;;;4962717;28;20612;-73
2022/01/01 01:47:15;;;;;;;2.33;0.30;;;32.80;85.10;;;;;;4964231;28;20023;-73
2022/01/01 01:49:44;;;;;;;6.28;0.38;;;32.80;84.20;;;;;;4971316;28;20497;-74
2022/01/01 01:52:15;;;;;;;1.40;0.30;;;33.00;83.20;;;;;;4960630;28;20466;-74
2022/01/01 01:54:43;;;;;;;1.17;0.20;;;33.20;83.00;;;;;;4970553;28;20034;-74
2022/01/01 01:57:11;;;;;;;2.65;0.88;;;33.70;84.00;;;;;;4969571;28;20081;-74
2022/01/01 01:59:39;;;;;;;1.20;0.35;;;33.90;81.30;;;;;;4968472;28;20320;-74
2022/01/01 02:02:07;;;;;;;1.50;0.20;;;34.10;82.90;;;;;;4971264;28;20037;-75
2022/01/01 02:04:34;;;;;;;4.38;0.20;;;34.60;82.90;;;;;;4974340;28;20031;-73
2022/01/01 02:07:05;;;;;;;3.67;0.40;;;34.90;80.00;;;;;;4972891;28;20031;-73
2022/01/01 02:09:33;;;;;;;1.65;0.20;;;34.60;79.30;;;;;;4970730;28;20044;-74
2022/01/01 02:12:02;;;;;;;1.40;0.22;;;34.70;78.00;;;;;;4976208;28;20026;-74
2022/01/01 02:14:50;;;;;;;0.82;0.13;;;34.60;77.50;;;;;;4968022;28;20026;-74
2022/01/01 02:17:18;;;;;;;1.45;0.22;;;34.60;77.80;;;;;;4963867;28;20367;-74
2022/01/01 02:19:59;;;;;;;0.63;0.20;;;34.70;80.00;;;;;;4968474;28;20042;-75
2022/01/01 02:22:48;;;;;;;1.90;0.80;;;34.50;77.40;;;;;;4968473;28;20416;-73
2022/01/01 02:25:18;;;;;;;1.27;0.20;;;33.40;77.30;;;;;;4968400;28;20070;-73
2022/01/01 02:27:46;;;;;;;0.98;0.43;;;32.60;78.80;;;;;;4961619;28;20122;-73
2022/01/01 02:30:15;;;;;;;1.00;0.10;;;32.00;80.30;;;;;;4969422;28;20768;-72
2022/01/01 02:32:43;;;;;;;1.33;0.35;;;31.80;81.40;;;;;;4969542;28;20446;-73
2022/01/01 02:35:14;;;;;;;2.15;0.57;;;31.90;83.00;;;;;;4969936;28;20049;-74
2022/01/01 02:37:42;;;;;;;1.90;0.30;;;32.60;80.90;;;;;;4965937;28;21667;-74
2022/01/01 02:40:10;;;;;;;2.47;0.30;;;33.20;79.60;;;;;;4968998;28;20034;-76
2022/01/01 02:42:42;;;;;;;0.52;0.22;;;33.40;78.10;;;;;;4968399;28;20014;-74
2022/01/01 02:45:11;;;;;;;0.70;0.20;;;33.30;78.90;;;;;;4970103;28;20034;-74
2022/01/01 02:47:39;;;;;;;0.60;0.20;;;33.60;78.70;;;;;;4966609;28;20537;-74
2022/01/01 02:50:07;;;;;;;1.40;0.20;;;33.80;77.40;;;;;;4973672;28;20125;-74
2022/01/01 02:52:35;;;;;;;2.05;0.57;;;34.10;75.90;;;;;;4967101;28;20482;-72
2022/01/01 02:55:03;;;;;;;0.80;0.10;;;33.70;75.90;;;;;;4961108;28;20457;-74
2022/01/01 02:57:31;;;;;;;2.47;0.20;;;33.30;78.10;;;;;;4971256;28;20023;-74
2022/01/01 02:59:58;;;;;;;1.70;0.20;;;33.50;76.30;;;;;;4964258;28;20069;-73
2022/01/01 03:02:26;;;;;;;0.30;0.13;;;33.70;75.10;;;;;;4970597;28;20030;-73
2022/01/01 03:04:53;;;;;;;1.27;0.20;;;34.10;73.80;;;;;;4974839;28;20037;-73
2022/01/01 03:07:20;;;;;;;0.85;0.43;;;34.40;75.00;;;;;;4968651;28;20110;-75
2022/01/01 03:09:48;;;;;;;2.72;0.35;;;34.60;74.30;;;;;;4971901;28;21218;-76
2022/01/01 03:12:16;;;;;;;1.55;0.30;;;35.10;75.50;;;;;;4966840;28;20034;-75
2022/01/01 03:14:44;;;;;;;0.85;0.10;;;35.10;73.50;;;;;;4969557;28;20026;-75
2022/01/01 03:17:12;;;;;;;2.67;0.32;;;35.50;73.90;;;;;;4963500;28;20109;-73
2022/01/01 03:19:39;;;;;;;2.90;0.20;;;35.20;74.80;;;;;;4967729;28;20123;-75
2022/01/01 03:22:07;;;;;;;0.63;0.20;;;34.80;74.40;;;;;;4969219;28;20033;-74
2022/01/01 03:24:34;;;;;;;1.45;0.20;;;34.20;75.40;;;;;;4970714;28;20046;-74
2022/01/01 03:27:03;;;;;;;2.22;0.38;;;33.60;75.30;;;;;;4963810;28;20058;-74
2022/01/01 03:29:32;;;;;;;2.45;0.25;;;33.40;76.50;;;;;;4973992;28;20402;-75
2022/01/01 03:32:00;;;;;;;1.40;0.30;;;33.30;76.00;;;;;;4972957;28;20058;-73
2022/01/01 03:34:27;;;;;;;0.52;0.20;;;33.70;75.40;;;;;;4976272;28;20038;-75
2022/01/01 03:36:55;;;;;;;2.30;0.82;;;33.50;76.40;;;;;;4981905;28;20384;-75
2022/01/01 03:39:22;;;;;;;2.42;0.35;;;33.30;76.70;;;;;;4980381;28;20042;-75
2022/01/01 03:41:50;;;;;;;2.42;0.52;;;33.10;78.00;;;;;;4963551;28;20038;-74
2022/01/01 03:44:18;;;;;;;1.85;0.30;;;32.80;79.50;;;;;;4971154;28;20088;-73
2022/01/01 03:46:46;;;;;;;4.70;0.40;;;32.60;80.60;;;;;;4969295;28;20482;-74
2022/01/01 03:49:14;;;;;;;0.68;0.30;;;32.40;81.20;;;;;;4959430;28;20492;-75
2022/01/01 03:51:41;;;;;;;2.20;0.40;;;32.20;81.30;;;;;;4966837;28;20034;-75
2022/01/01 03:54:09;;;;;;;3.28;0.30;;;32.20;81.50;;;;;;4965609;28;20110;-75
2022/01/01 03:56:38;;;;;;;2.53;0.30;;;32.30;81.70;;;;;;4963702;28;20458;-75
2022/01/01 03:59:06;;;;;;;2.80;0.38;;;32.60;81.10;;;;;;4970358;28;20038;-75
2022/01/01 04:01:33;;;;;;;0.90;0.28;;;32.70;80.30;;;;;;4966714;28;20035;-73
2022/01/01 04:04:01;;;;;;;2.55;0.28;;;32.90;80.30;;;;;;4969597;28;22491;-74
2022/01/01 04:06:28;;;;;;;1.02;0.30;;;32.70;80.70;;;;;;4967815;28;20390;-73
2022/01/01 04:08:55;;;;;;;0.65;0.20;;;32.40;81.10;;;;;;4973795;28;20034;-74
2022/01/01 04:11:23;;;;;;;1.15;0.40;;;32.30;82.00;;;;;;4969795;28;20026;-74
2022/01/01 04:13:50;;;;;;;0.95;0.30;;;32.50;81.90;;;;;;4967792;28;20043;-74
2022/01/01 04:16:19;;;;;;;2.67;0.75;;;32.50;81.50;;;;;;4963857;28;20085;-73
2022/01/01 04:18:46;;;;;;;3.85;0.30;;;32.50;81.80;;;;;;4971597;28;20034;-74
2022/01/01 04:21:15;;;;;;;1.45;0.35;;;32.50;81.20;;;;;;4968680;28;20540;-73
2022/01/01 04:23:46;;;;;;;1.05;0.30;;;32.40;80.90;;;;;;4970909;28;20074;-75
2022/01/01 04:26:14;;;;;;;1.83;0.45;;;32.20;81.60;;;;;;4963241;28;20027;-74
2022/01/01 04:28:41;;;;;;;1.08;0.20;;;31.70;82.40;;;;;;4968263;28;20034;-74
2022/01/01 04:31:09;;;;;;;2.33;0.45;;;31.70;82.60;;;;;;4967586;28;20113;-74
2022/01/01 04:33:36;;;;;;;1.65;0.30;;;31.90;83.20;;;;;;4971124;28;20043;-74
2022/01/01 04:36:04;;;;;;;3.45;0.57;;;31.90;83.20;;;;;;4965645;28;20027;-74
2022/01/01 04:40:59;;;;;;;1.02;0.30;;;31.30;84.40;;;;;;4971195;28;20121;-74
2022/01/01 04:43:26;;;;;;;1.60;0.28;;;31.30;84.50;;;;;;4965861;28;20029;-74
2022/01/01 04:45:53;;;;;;;1.95;0.50;;;31.10;84.80;;;;;;4961489;28;20065;-73
2022/01/01 04:48:21;;;;;;;3.47;0.35;;;31.10;84.80;;;;;;4965830;28;20102;-75
2022/01/01 04:50:48;;;;;;;0.75;0.25;;;31.20;85.10;;;;;;4965772;28;20031;-74
2022/01/01 04:53:17;;;;;;;1.38;0.30;;;31.40;84.80;;;;;;4963963;28;20035;-75
2022/01/01 04:55:49;;;;;;;2.00;0.68;;;31.40;84.70;;;;;;4968249;28;20045;-74
2022/01/01 04:58:17;;;;;;;3.03;1.33;;;31.50;85.30;;;;;;4963104;28;20023;-73
2022/01/01 05:00:44;;;;;;;3.78;0.50;;;31.50;85.40;;;;;;4967606;28;20066;-74
2022/01/01 05:03:11;;;;;;;2.15;0.55;;;31.20;86.50;;;;;;4964488;28;20528;-74
2022/01/01 05:05:40;;;;;;;2.28;0.70;;;31.30;86.10;;;;;;4970014;28;21592;-76
2022/01/01 05:08:07;;;;;;;4.70;0.60;;;31.20;86.10;;;;;;4958199;28;20031;-80
2022/01/01 05:10:34;;;;;;;3.90;0.93;;;31.10;85.90;;;;;;4966505;28;20026;-76
2022/01/01 05:13:02;;;;;;;2.30;0.75;;;30.90;86.70;;;;;;4966695;28;20039;-75
2022/01/01 05:15:30;;;;;;;5.45;0.82;;;30.80;87.00;;;;;;4966461;28;20038;-77
2022/01/01 05:17:57;;;;;;;1.77;0.68;;;31.00;86.70;;;;;;4962301;28;20027;-74
2022/01/01 05:20:25;;;;;;;2.92;0.40;;;31.10;86.70;;;;;;4956862;28;20493;-74
2022/01/01 05:22:52;;;;;;;1.67;0.45;;;31.20;86.40;;;;;;4975078;28;20051;-74
2022/01/01 05:25:19;;;;;;;3.13;0.63;;;31.10;86.40;;;;;;4963576;28;20035;-74
2022/01/01 05:27:47;;;;;;;1.30;0.30;;;31.20;86.10;;;;;;4963879;28;20478;-74
2022/01/01 05:30:14;;;;;;;4.40;0.50;;;31.20;86.50;;;;;;4965549;28;20030;-76
2022/01/01 05:32:41;;;;;;;1.40;0.30;;;30.90;86.90;;;;;;4964501;28;20405;-75
2022/01/01 05:35:09;;;;;;;1.90;0.35;;;30.60;87.90;;;;;;4965512;28;20114;-74
2022/01/01 05:37:36;;;;;;;2.55;0.43;;;30.40;89.00;;;;;;4965776;28;20034;-73
2022/01/01 05:40:05;;;;;;;1.40;0.43;;;30.60;88.60;;;;;;4973661;28;20147;-74
2022/01/01 05:42:32;;;;;;;3.53;0.50;;;30.60;88.80;;;;;;4968854;28;20034;-75
2022/01/01 05:44:59;;;;;;;3.35;0.45;;;30.90;88.70;;;;;;4970115;28;20027;-74
2022/01/01 05:47:27;;;;;;;4.40;0.68;;;30.90;88.10;;;;;;4978907;28;20073;-74
2022/01/01 05:49:54;;;;;;;2.00;0.45;;;30.70;88.60;;;;;;4967681;28;20034;-73
2022/01/01 05:52:21;;;;;;;4.00;1.10;;;30.60;89.40;;;;;;4965017;28;20024;-76
2022/01/01 05:54:49;;;;;;;2.92;0.40;;;30.30;89.20;;;;;;4979637;28;20449;-73
2022/01/01 05:57:16;;;;;;;3.25;0.63;;;29.90;89.50;;;;;;4965385;28;20108;-74
2022/01/01 05:59:44;;;;;;;1.30;0.40;;;29.60;90.30;;;;;;4968875;28;20043;-74
2022/01/01 06:02:11;;;;;;;3.67;0.70;;;29.60;90.60;;;;;;4971240;28;20033;-74
2022/01/01 06:04:39;;;;;;;2.17;0.30;;;29.60;90.50;;;;;;4973333;28;20113;-75
2022/01/01 06:07:07;;;;;;;1.08;0.30;;;29.60;90.30;;;;;;4972938;28;20028;-77
2022/01/01 06:09:34;;;;;;;1.85;0.30;;;29.50;90.30;;;;;;4971334;28;20031;-76
2022/01/01 06:12:02;;;;;;;2.83;0.40;;;29.30;90.40;;;;;;4979309;28;20038;-74
2022/01/01 06:14:29;;;;;;;1.38;0.32;;;29.20;90.60;;;;;;4971068;28;20023;-76
2022/01/01 06:16:56;;;;;;;3.97;0.73;;;29.20;90.70;;;;;;4973017;28;20030;-74
2022/01/01 06:19:24;;;;;;;3.42;0.55;;;29.20;90.50;;;;;;4972664;28;20039;-74
2022/01/01 06:21:51;;;;;;;3.10;0.50;;;29.20;90.90;;;;;;4967088;28;20026;-74
2022/01/01 06:24:18;;;;;;;3.03;0.50;;;29.30;90.60;;;;;;4963468;28;20043;-74
2022/01/01 06:26:46;;;;;;;5.65;0.70;;;29.10;90.90;;;;;;4970038;28;20367;-75
2022/01/01 06:29:13;;;;;;;1.05;0.28;;;29.00;91.00;;;;;;4973011;28;20034;-74
2022/01/01 06:31:40;;;;;;;3.58;0.45;;;28.90;91.10;;;;;;4964495;28;20027;-76
2022/01/01 06:34:08;;;;;;;2.15;0.77;;;28.90;91.30;;;;;;4964901;28;20110;-76
2022/01/01 06:36:35;;;;;;;1.45;0.40;;;29.00;91.30;;;;;;4966322;28;20489;-73
2022/01/01 06:39:03;;;;;;;3.42;0.60;;;29.10;90.80;;;;;;4963772;28;20047;-75
2022/01/01 06:41:30;;;;;;;3.47;0.50;;;29.30;90.50;;;;;;4966761;28;20036;-74
2022/01/01 06:43:58;;;;;;;2.00;0.30;;;29.20;90.50;;;;;;4964210;28;20027;-74
2022/01/01 06:46:25;;;;;;;2.53;0.35;;;29.20;90.90;;;;;;4967373;28;20105;-74
2022/01/01 06:48:52;;;;;;;1.27;0.40;;;29.20;90.90;;;;;;4968954;28;20034;-74
2022/01/01 06:51:20;;;;;;;2.30;0.60;;;29.20;91.10;;;;;;4972169;28;20023;-76
2022/01/01 06:53:47;;;;;;;2.83;0.40;;;29.10;91.40;;;;;;4978858;28;20019;-76
2022/01/01 06:56:14;;;;;;;3.67;0.45;;;28.80;91.70;;;;;;4964323;28;20504;-75
2022/01/01 06:58:42;;;;;;;1.67;0.30;;;28.60;91.90;;;;;;4963540;28;20042;-74
2022/01/01 07:01:09;;;;;;;2.78;0.45;;;28.70;92.00;;;;;;4966360;28;20027;-76
2022/01/01 07:03:36;;;;;;;3.40;0.98;;;28.60;92.00;;;;;;4962132;28;20025;-76
2022/01/01 07:06:04;;;;;;;2.25;0.60;;;28.60;92.00;;;;;;4979168;28;20034;-75
2022/01/01 07:08:31;;;;;;;3.03;0.68;;;28.70;92.20;;;;;;4973197;28;20606;-74
2022/01/01 07:10:59;;;;;;;2.72;0.80;;;28.60;92.10;;;;;;4960271;28;20041;-74
2022/01/01 07:13:26;;;;;;;3.53;0.93;;;28.60;91.90;;;;;;4967955;28;20039;-76
2022/01/01 07:15:54;;;;;;;2.20;1.05;;;28.60;92.30;;;;;;4979958;28;20049;-76
2022/01/01 07:18:21;;;;;;;5.53;0.77;;;28.60;92.20;;;;;;4972095;28;20077;-77
2022/01/01 07:20:48;;;;;;;3.80;0.40;;;28.70;92.30;;;;;;4970001;28;20086;-74
2022/01/01 07:23:16;;;;;;;3.28;0.60;;;28.70;92.40;;;;;;4970793;28;20081;-74
2022/01/01 07:25:43;;;;;;;2.65;0.70;;;28.60;92.60;;;;;;4961714;28;20030;-75
2022/01/01 07:28:13;;;;;;;3.67;0.70;;;28.50;92.90;;;;;;4973282;28;20553;-74
2022/01/01 07:30:41;;;;;;;2.25;0.63;;;28.40;93.10;;;;;;4973943;28;20030;-76
2022/01/01 07:33:11;;;;;;;3.42;0.98;;;28.40;93.40;;;;;;4966277;28;20029;-77
2022/01/01 07:35:39;;;;;;;6.05;1.10;;;28.20;93.60;;;;;;4970322;28;20031;-75
2022/01/01 07:38:07;;;;;;;1.75;0.60;;;28.10;93.90;;;;;;4968617;28;20047;-75
2022/01/01 07:40:35;;;;;;;4.55;0.88;;;28.10;93.80;;;;;;4972766;28;20466;-74
2022/01/01 07:43:09;;;;;;;4.50;0.57;;;28.20;93.80;;;;;;4968526;28;20481;-74
2022/01/01 07:45:36;;;;;;;1.58;0.32;;;28.30;93.80;;;;;;4986353;28;20026;-75
2022/01/01 07:48:04;;;;;;;2.95;0.28;;;28.30;93.80;;;;;;4987830;28;20030;-73
2022/01/01 07:50:32;;;;;;;7.18;1.05;;;28.20;94.00;;;;;;4985865;28;20037;-74
2022/01/01 07:52:59;;;;;;;1.55;0.43;;;28.00;94.30;;;;;;4973227;28;20031;-76
2022/01/01 07:55:27;;;;;;;5.20;0.93;;;27.90;94.60;;;;;;4970646;28;20414;-76
2022/01/01 07:57:54;;;;;;;4.38;0.50;;;27.80;94.70;;;;;;4970201;28;20042;-75
2022/01/01 08:00:21;;;;;;;3.38;0.68;;;27.70;94.90;;;;;;4968367;28;20417;-76
2022/01/01 08:02:49;;;;;;;4.40;1.17;;;27.60;95.30;;;;;;4974402;28;20023;-75
2022/01/01 08:05:17;;;;;;;4.68;1.45;;;27.70;95.30;;;;;;4976488;28;20504;-75
2022/01/01 08:07:46;;;;;;;3.17;0.70;;;27.80;95.20;;;;;;4983344;28;20035;-74
2022/01/01 08:10:13;;;;;;;3.65;0.43;;;27.80;95.10;;;;;;4982967;28;20037;-74
2022/01/01 08:12:41;;;;;;;3.05;0.60;;;27.80;95.00;;;;;;4957908;28;20425;-74
2022/01/01 08:15:09;;;;;;;1.70;0.57;;;27.70;95.30;;;;;;4970197;28;20027;-75
2022/01/01 08:17:37;;;;;;;3.80;0.70;;;27.70;95.40;;;;;;4961402;28;20031;-75
2022/01/01 08:20:04;;;;;;;3.78;0.52;;;27.60;95.50;;;;;;4971972;28;20038;-74
2022/01/01 08:22:32;;;;;;;5.32;1.75;;;27.50;95.50;;;;;;4967625;28;20033;-75
2022/01/01 08:25:01;;;;;;;2.67;0.60;;;27.40;95.60;;;;;;4972171;28;20031;-75
2022/01/01 08:27:28;;;;;;;2.67;0.25;;;27.40;95.50;;;;;;4957364;28;20042;-74
2022/01/01 08:29:55;;;;;;;3.40;0.52;;;27.30;94.70;;;;;;4962991;28;20026;-75
2022/01/01 08:32:23;;;;;;;3.10;0.68;;;27.20;95.00;;;;;;4962992;28;20026;-74
2022/01/01 08:34:52;;;;;;;3.10;0.40;;;27.00;95.10;;;;;;4970065;28;20101;-74
2022/01/01 08:37:19;;;;;;;4.05;0.60;;;26.90;95.40;;;;;;4958311;28;20058;-74
2022/01/01 08:39:47;;;;;;;2.33;0.40;;;26.90;95.40;;;;;;4966719;28;20046;-74
2022/01/01 08:42:14;;;;;;;2.95;0.75;;;26.90;95.50;;;;;;4961264;28;20437;-74
2022/01/01 08:44:43;;;;;;;2.55;1.17;;;26.80;95.60;;;;;;4967241;28;20053;-73
2022/01/01 08:47:10;;;;;;;6.30;0.63;;;26.80;95.70;;;;;;4961982;28;20027;-73
2022/01/01 08:49:37;;;;;;;4.30;0.73;;;26.80;95.90;;;;;;4963577;28;20069;-76
2022/01/01 08:52:06;;;;;;;6.97;0.70;;;26.70;95.70;;;;;;4967496;28;20030;-74
2022/01/01 08:54:34;;;;;;;2.80;1.25;;;26.70;95.80;;;;;;4962932;28;20031;-75
2022/01/01 08:57:01;;;;;;;2.75;0.70;;;26.60;95.80;;;;;;4961088;28;20035;-74
2022/01/01 08:59:29;;;;;;;3.35;0.60;;;26.40;96.00;;;;;;4961857;28;20042;-74
2022/01/01 09:01:56;;;;;;;4.75;0.90;;;26.50;96.00;;;;;;4962188;28;20042;-74
2022/01/01 09:04:23;;;;;;;6.05;0.40;;;26.50;96.00;;;;;;4978254;28;20038;-74
2022/01/01 09:06:51;;;;;;;1.85;0.45;;;26.40;96.20;;;;;;4971522;28;20034;-74
2022/01/01 09:09:18;;;;;;;5.55;1.27;;;26.30;96.40;;;;;;4974463;28;20033;-75
2022/01/01 09:11:45;;;;;;;4.18;0.50;;;26.20;96.60;;;;;;4969360;28;20042;-75
2022/01/01 09:14:13;;;;;;;9.65;1.33;;;26.20;96.70;;;;;;4968480;28;20571;-75
2022/01/01 09:16:40;;;;;;;2.53;0.40;;;26.20;96.70;;;;;;4961747;28;20382;-74
2022/01/01 09:19:07;;;;;;;5.13;1.17;;;26.20;96.80;;;;;;4966398;28;20039;-74
2022/01/01 09:21:35;;;;;;;2.10;0.65;;;26.20;96.80;;;;;;4976309;28;20027;-75
2022/01/01 09:24:02;;;;;;;1.88;0.60;;;26.20;96.80;;;;;;4972311;28;20062;-75
2022/01/01 09:26:29;;;;;;;7.30;0.70;;;26.20;97.00;;;;;;4974421;28;20023;-73
2022/01/01 09:28:57;;;;;;;2.95;0.73;;;26.00;97.00;;;;;;4965192;28;20027;-73
2022/01/01 09:31:24;;;;;;;3.83;0.50;;;26.00;97.20;;;;;;4966240;28;20050;-75
2022/01/01 09:33:51;;;;;;;1.88;1.00;;;25.90;97.30;;;;;;4971047;28;20031;-74
2022/01/01 09:36:19;;;;;;;3.13;1.50;;;25.80;97.60;;;;;;4966270;28;20474;-73
2022/01/01 09:38:46;;;;;;;2.90;0.80;;;25.70;97.80;;;;;;4967427;28;20617;-73
2022/01/01 09:41:15;;;;;;;4.97;0.95;;;25.60;98.10;;;;;;4965994;28;20015;-73
2022/01/01 09:43:45;;;;;;;5.82;0.90;;;25.60;98.20;;;;;;4968223;28;20066;-74
2022/01/01 09:46:14;;;;;;;4.50;1.13;;;25.60;98.10;;;;;;4970505;28;20092;-73
2022/01/01 09:48:42;;;;;;;4.20;0.50;;;25.60;98.30;;;;;;4976378;28;20058;-75
2022/01/01 09:51:09;;;;;;;5.22;1.42;;;25.40;98.50;;;;;;4979371;28;20405;-75
2022/01/01 09:53:37;;;;;;;3.33;0.70;;;25.50;98.80;;;;;;4977743;28;20035;-74
2022/01/01 09:56:05;;;;;;;2.45;0.85;;;25.50;98.70;;;;;;4984033;28;20117;-74
2022/01/01 09:58:35;;;;;;;3.72;1.48;;;25.40;98.70;;;;;;4983368;28;20019;-73
2022/01/01 10:01:06;;;;;;;1.90;0.50;;;25.30;98.90;;;;;;4970347;28;20049;-73
2022/01/01 10:03:40;;;;;;;7.20;1.27;;;25.30;99.10;;;;;;4968654;28;20477;-75
2022/01/01 10:06:17;;;;;;;4.80;0.82;;;25.30;99.20;;;;;;4970747;28;20035;-75
2022/01/01 10:08:54;;;;;;;5.13;0.63;;;25.20;99.40;;;;;;4965580;28;20051;-75
2022/01/01 10:11:22;;;;;;;5.90;0.80;;;25.10;99.60;;;;;;4981731;28;20102;-74
2022/01/01 10:13:50;;;;;;;4.60;0.77;;;25.10;99.80;;;;;;4980840;28;20027;-75
2022/01/01 10:16:18;;;;;;;6.30;1.70;;;25.00;99.80;;;;;;4978832;28;20031;-74
2022/01/01 10:18:52;;;;;;;4.25;0.88;;;25.00;99.90;;;;;;4974559;28;20421;-75
2022/01/01 10:21:27;;;;;;;11.40;0.93;;;25.00;99.90;;;;;;4976877;28;20210;-75
2022/01/01 10:23:58;;;;;;;6.53;0.77;;;24.90;99.90;;;;;;4975886;28;20059;-75
2022/01/01 10:29:23;;;;;;;5.45;1.17;;;24.80;99.90;;;;;;4971811;28;20069;-75
2022/01/01 10:31:56;;;;;;;2.38;0.95;;;24.60;99.90;;;;;;4974281;28;20560;-75
2022/01/01 10:34:29;;;;;;;4.93;1.00;;;24.60;99.90;;;;;;4962826;28;20062;-77
2022/01/01 10:36:56;;;;;;;5.40;1.65;;;24.60;99.90;;;;;;4960214;28;20037;-76
2022/01/01 10:39:24;;;;;;;5.07;1.05;;;24.80;99.90;;;;;;4967756;28;20366;-76
2022/01/01 10:41:55;;;;;;;3.97;0.88;;;24.80;99.90;;;;;;4959386;28;20406;-77
2022/01/01 10:44:27;;;;;;;2.63;0.57;;;24.80;99.90;;;;;;4973587;28;20162;-76
2022/01/01 10:46:55;;;;;;;3.33;0.63;;;24.80;99.90;;;;;;4960798;28;20374;-75
2022/01/01 10:52:23;;;;;;;4.95;1.73;;;24.60;99.90;;;;;;4965646;28;20488;-77
2022/01/01 10:54:58;;;;;;;6.50;1.90;;;24.60;99.90;;;;;;4979927;28;20481;-76
2022/01/01 10:57:33;;;;;;;6.30;2.23;;;24.50;99.90;;;;;;4974019;28;20047;-77
2022/01/01 11:00:13;;;;;;;6.47;1.70;;;24.50;99.90;;;;;;4974635;28;21938;-76
2022/01/01 11:02:48;;;;;;;7.90;2.38;;;24.60;99.90;;;;;;4964488;28;20030;-75
2022/01/01 11:05:16;;;;;;;7.88;1.98;;;24.60;99.90;;;;;;4972656;28;20457;-74
2022/01/01 11:07:54;;;;;;;9.75;3.40;;;24.50;99.90;;;;;;4975433;28;20025;-74
2022/01/01 11:10:23;;;;;;;8.55;2.63;;;24.40;99.90;;;;;;4972227;28;20426;-75
2022/01/01 11:12:51;;;;;;;9.52;3.17;;;24.30;99.90;;;;;;4964936;28;20033;-75
2022/01/01 11:15:20;;;;;;;9.88;2.47;;;24.30;99.90;;;;;;4964956;28;20106;-75
2022/01/01 11:17:49;;;;;;;8.55;3.45;;;24.30;99.90;;;;;;4966875;28;20019;-76
2022/01/01 11:20:17;;;;;;;5.55;2.58;;;24.20;99.90;;;;;;4979420;28;20101;-75
2022/01/01 11:22:45;;;;;;;8.27;2.28;;;24.30;99.90;;;;;;4970316;28;20508;-77
2022/01/01 11:25:13;;;;;;;11.30;2.85;;;24.30;99.90;;;;;;4969699;28;20134;-76
2022/01/01 11:27:42;;;;;;;8.93;2.42;;;24.20;99.90;;;;;;4968801;28;20031;-76
2022/01/01 11:30:14;;;;;;;7.00;3.38;;;24.20;99.90;;;;;;4965940;28;20934;-76
2022/01/01 11:32:52;;;;;;;5.85;2.22;;;24.00;99.90;;;;;;4966084;28;20773;-77
2022/01/01 11:35:23;;;;;;;9.38;2.47;;;24.00;99.90;;;;;;4970359;28;20023;-75
2022/01/01 11:37:58;;;;;;;7.38;2.05;;;23.90;99.90;;;;;;4969629;28;20113;-76
2022/01/01 11:40:26;;;;;;;10.20;2.53;;;23.90;99.90;;;;;;4958533;28;20565;-75
2022/01/01 11:42:54;;;;;;;4.82;1.80;;;23.90;99.90;;;;;;4966558;28;20783;-77
2022/01/01 11:45:45;;;;;;;5.65;1.60;;;23.90;99.90;;;;;;4965791;28;20520;-76
2022/01/01 11:48:32;;;;;;;14.75;2.40;;;23.80;99.90;;;;;;4965638;28;20504;-74
2022/01/01 11:51:20;;;;;;;10.93;2.28;;;23.80;99.90;;;;;;4967186;28;20099;-76
2022/01/01 11:54:15;;;;;;;8.48;2.22;;;23.80;99.90;;;;;;4964034;28;20037;-75
2022/01/01 11:56:55;;;;;;;6.25;1.27;;;23.80;99.90;;;;;;4961624;28;20117;-74
2022/01/01 11:59:28;;;;;;;3.20;1.30;;;23.80;99.90;;;;;;4965215;28;20047;-77
2022/01/01 12:02:01;;;;;;;2.28;0.65;;;23.70;99.90;;;;;;4968468;28;20035;-76
2022/01/01 12:04:39;;;;;;;6.88;1.10;;;23.70;99.90;;;;;;4961566;28;20031;-75
2022/01/01 12:07:24;;;;;;;7.05;1.13;;;23.70;99.90;;;;;;4967228;28;20023;-76
2022/01/01 12:10:05;;;;;;;2.78;0.98;;;23.60;99.90;;;;;;4970373;28;20030;-75
2022/01/01 12:12:50;;;;;;;8.40;1.40;;;23.60;99.90;;;;;;4967909;28;20389;-75
2022/01/01 12:15:22;;;;;;;1.50;0.75;;;23.50;99.90;;;;;;4958801;28;20029;-76
2022/01/01 12:17:53;;;;;;;2.13;0.75;;;23.50;99.90;;;;;;4959848;28;20423;-73
2022/01/01 12:20:28;;;;;;;3.75;1.70;;;23.40;99.90;;;;;;4965364;28;20049;-75
2022/01/01 12:22:55;;;;;;;7.80;1.10;;;23.30;99.90;;;;;;4973627;28;20074;-75
2022/01/01 12:25:27;;;;;;;8.60;1.35;;;23.30;99.90;;;;;;4973770;28;20137;-75
2022/01/01 12:27:56;;;;;;;4.15;0.93;;;23.30;99.90;;;;;;4964009;28;20110;-75
2022/01/01 12:30:44;;;;;;;7.22;1.05;;;23.30;99.90;;;;;;4970961;28;20035;-79
2022/01/01 12:33:33;;;;;;;6.88;1.25;;;23.20;99.90;;;;;;4968247;28;20035;-77
2022/01/01 12:36:05;;;;;;;5.68;1.60;;;23.20;99.90;;;;;;4970528;28;20042;-76
2022/01/01 12:38:33;;;;;;;4.00;0.80;;;23.10;99.90;;;;;;4970718;28;20133;-75
2022/01/01 12:41:15;;;;;;;6.60;1.42;;;23.10;99.90;;;;;;4966549;28;20067;-76
2022/01/01 12:43:56;;;;;;;4.00;1.00;;;23.00;99.90;;;;;;4964629;28;20023;-79
2022/01/01 12:46:26;;;;;;;6.07;1.38;;;22.90;99.90;;;;;;4964045;28;20090;-80
2022/01/01 12:48:57;;;;;;;5.38;0.98;;;22.90;99.90;;;;;;4967407;28;20038;-78
2022/01/01 12:51:26;;;;;;;7.00;1.27;;;22.90;99.90;;;;;;4970396;28;20146;-78
2022/01/01 12:54:02;;;;;;;5.28;1.17;;;22.90;99.90;;;;;;4964620;28;20035;-76
2022/01/01 12:56:31;;;;;;;7.55;2.22;;;22.80;99.90;;;;;;4963379;28;20027;-78
2022/01/01 12:59:08;;;;;;;3.33;1.20;;;22.80;99.90;;;;;;4961644;28;20031;-79
2022/01/01 13:01:37;;;;;;;11.98;2.28;;;22.70;99.90;;;;;;4964237;28;20086;-78
2022/01/01 13:04:11;;;;;;;5.20;1.50;;;22.70;99.90;;;;;;4960441;28;20497;-79